createdAt,value
2022-09-27T00:01:10.187Z,100.00
2022-09-27T00:03:42.624Z,100.00
2022-09-27T00:06:14.476Z,100.00
2022-09-27T00:08:41.704Z,100.00
2022-09-27T00:11:16.180Z,100.00
2022-09-27T00:13:43.341Z,100.00
2022-09-27T00:16:11.164Z,100.00
2022-09-27T00:18:38.118Z,100.00
2022-09-27T00:21:12.222Z,100.00
2022-09-27T00:23:40.209Z,100.00
2022-09-27T00:26:09.071Z,100.00
2022-09-27T00:28:35.997Z,100.00
2022-09-27T00:31:03.854Z,100.00
2022-09-27T00:33:31.088Z,100.00
2022-09-27T00:36:05.837Z,100.00
2022-09-27T00:38:33.282Z,100.00
2022-09-27T00:41:00.299Z,100.00
2022-09-27T00:44:08.186Z,100.00
2022-09-27T00:46:41.827Z,100.00
2022-09-27T00:49:22.646Z,100.00
2022-09-27T00:51:56.672Z,100.00
2022-09-27T00:54:26.668Z,100.00
2022-09-27T00:56:54.128Z,100.00
2022-09-27T00:59:37.444Z,100.00
2022-09-27T01:02:06.861Z,100.00
2022-09-27T01:04:36.980Z,100.00
2022-09-27T01:07:03.966Z,100.00
2022-09-27T01:09:31.700Z,100.00
2022-09-27T01:12:36.375Z,100.00
2022-09-27T01:15:40.482Z,100.00
2022-09-27T01:18:13.728Z,100.00
2022-09-27T01:21:12.112Z,100.00
2022-09-27T01:24:12.450Z,100.00
2022-09-27T01:27:01.623Z,100.00
2022-09-27T01:29:57.054Z,100.00
2022-09-27T01:32:36.687Z,100.00
2022-09-27T01:35:23.425Z,100.00
2022-09-27T01:38:10.294Z,100.00
2022-09-27T01:40:58.194Z,100.00
2022-09-27T01:44:13.093Z,100.00
2022-09-27T01:46:57.071Z,100.00
2022-09-27T01:49:55.951Z,100.00
2022-09-27T01:52:31.417Z,100.00
2022-09-27T01:55:04.606Z,100.00
2022-09-27T01:57:57.923Z,100.00
2022-09-27T02:00:26.973Z,100.00
2022-09-27T02:03:02.130Z,100.00
2022-09-27T02:05:43.181Z,100.00
2022-09-27T02:08:42.151Z,100.00
2022-09-27T02:11:22.173Z,100.00
2022-09-27T02:14:06.516Z,100.00
2022-09-27T02:17:11.597Z,100.00
2022-09-27T02:19:52.455Z,100.00
2022-09-27T02:22:38.669Z,100.00
2022-09-27T02:25:06.564Z,100.00
2022-09-27T02:28:03.904Z,100.00
2022-09-27T02:30:34.973Z,100.00
2022-09-27T02:33:15.844Z,100.00
2022-09-27T02:35:43.242Z,100.00
2022-09-27T02:38:10.885Z,100.00
2022-09-27T02:40:44.935Z,100.00
2022-09-27T02:43:15.019Z,100.00
2022-09-27T02:46:01.628Z,100.00
2022-09-27T02:48:52.316Z,100.00
2022-09-27T02:51:35.979Z,100.00
2022-09-27T02:54:08.904Z,100.00
2022-09-27T02:57:22.437Z,100.00
2022-09-27T03:00:18.307Z,100.00
2022-09-27T03:03:08.474Z,100.00
2022-09-27T03:05:49.280Z,100.00
2022-09-27T03:08:18.602Z,100.00
2022-09-27T03:10:45.884Z,100.00
2022-09-27T03:13:14.257Z,100.00
2022-09-27T03:15:42.436Z,100.00
2022-09-27T03:18:18.586Z,100.00
2022-09-27T03:20:46.569Z,100.00
2022-09-27T03:23:21.060Z,100.00
2022-09-27T03:25:50.035Z,100.00
2022-09-27T03:28:17.903Z,100.00
2022-09-27T03:30:46.973Z,100.00
2022-09-27T03:33:28.149Z,100.00
2022-09-27T03:36:00.301Z,100.00
2022-09-27T03:38:27.381Z,100.00
2022-09-27T03:40:54.566Z,100.00
2022-09-27T03:43:21.486Z,100.00
2022-09-27T03:45:48.783Z,100.00
2022-09-27T03:48:17.588Z,100.00
2022-09-27T03:50:44.453Z,100.00
2022-09-27T03:53:11.316Z,100.00
2022-09-27T03:55:38.555Z,100.00
2022-09-27T03:58:06.418Z,100.00
2022-09-27T04:00:39.219Z,100.00
2022-09-27T04:03:06.781Z,100.00
2022-09-27T04:05:40.145Z,100.00
2022-09-27T04:08:12.086Z,100.00
2022-09-27T04:10:39.021Z,100.00
2022-09-27T04:13:06.299Z,100.00
2022-09-27T04:15:44.453Z,100.00
2022-09-27T04:18:31.485Z,100.00
2022-09-27T04:21:35.393Z,100.00
2022-09-27T04:24:02.693Z,100.00
2022-09-27T04:26:29.829Z,100.00
2022-09-27T04:29:04.003Z,100.00
2022-09-27T04:31:34.120Z,100.00
2022-09-27T04:34:11.155Z,100.00
2022-09-27T04:36:40.367Z,100.00
2022-09-27T04:39:10.447Z,100.00
2022-09-27T04:41:41.425Z,100.00
2022-09-27T04:44:08.305Z,100.00
2022-09-27T04:46:35.424Z,100.00
2022-09-27T04:49:03.514Z,100.00
2022-09-27T04:51:32.847Z,100.00
2022-09-27T04:54:00.718Z,100.00
2022-09-27T04:56:30.771Z,100.00
2022-09-27T04:58:58.827Z,100.00
2022-09-27T05:01:25.821Z,100.00
2022-09-27T05:04:13.065Z,100.00
2022-09-27T05:06:43.603Z,100.00
2022-09-27T05:09:19.868Z,100.00
2022-09-27T05:11:49.823Z,100.00
2022-09-27T05:14:17.137Z,100.00
2022-09-27T05:16:55.483Z,100.00
2022-09-27T05:19:42.080Z,100.00
2022-09-27T05:22:19.330Z,100.00
2022-09-27T05:24:47.312Z,100.00
2022-09-27T05:27:18.549Z,100.00
2022-09-27T05:29:47.134Z,100.00
2022-09-27T05:32:19.656Z,100.00
2022-09-27T05:34:54.295Z,100.00
2022-09-27T05:37:21.587Z,100.00
2022-09-27T05:39:50.030Z,100.00
2022-09-27T05:42:19.084Z,100.00
2022-09-27T05:44:47.669Z,100.00
2022-09-27T05:47:16.008Z,100.00
2022-09-27T05:49:43.292Z,100.00
2022-09-27T05:52:15.155Z,100.00
2022-09-27T05:54:44.066Z,100.00
2022-09-27T05:57:11.155Z,100.00
2022-09-27T05:59:43.980Z,100.00
2022-09-27T06:02:37.302Z,100.00
2022-09-27T06:05:24.265Z,100.00
2022-09-27T06:08:34.677Z,100.00
2022-09-27T06:11:06.924Z,100.00
2022-09-27T06:13:36.409Z,100.00
2022-09-27T06:16:04.341Z,100.00
2022-09-27T06:18:32.680Z,100.00
2022-09-27T06:21:01.545Z,100.00
2022-09-27T06:23:29.348Z,100.00
2022-09-27T06:26:01.869Z,100.00
2022-09-27T06:28:41.118Z,100.00
2022-09-27T06:31:09.587Z,100.00
2022-09-27T06:33:47.823Z,100.00
2022-09-27T06:38:42.338Z,100.00
2022-09-27T06:41:20.078Z,100.00
2022-09-27T06:44:05.602Z,100.00
2022-09-27T06:46:32.990Z,100.00
2022-09-27T06:49:12.080Z,100.00
2022-09-27T06:51:40.792Z,100.00
2022-09-27T06:54:07.820Z,100.00
2022-09-27T06:56:35.071Z,100.00
2022-09-27T06:59:20.654Z,100.00
2022-09-27T07:01:52.703Z,100.00
2022-09-27T07:04:29.107Z,100.00
2022-09-27T07:07:02.296Z,100.00
2022-09-27T07:09:33.371Z,100.00
2022-09-27T07:12:00.952Z,100.00
2022-09-27T07:14:27.986Z,100.00
2022-09-27T07:16:55.947Z,100.00
2022-09-27T07:19:24.298Z,100.00
2022-09-27T07:21:52.595Z,100.00
2022-09-27T07:24:20.234Z,100.00
2022-09-27T07:26:48.193Z,100.00
2022-09-27T07:29:17.259Z,100.00
2022-09-27T07:31:44.665Z,100.00
2022-09-27T07:34:12.442Z,100.00
2022-09-27T07:36:40.104Z,99.99
2022-09-27T07:39:09.937Z,99.76
2022-09-27T07:41:36.786Z,99.63
2022-09-27T07:44:05.068Z,99.82
2022-09-27T07:46:34.931Z,99.39
2022-09-27T07:49:17.731Z,98.95
2022-09-27T07:52:01.276Z,98.24
2022-09-27T07:55:07.343Z,97.98
2022-09-27T07:57:51.087Z,98.44
2022-09-27T08:00:21.957Z,98.25
2022-09-27T08:02:49.056Z,98.15
2022-09-27T08:05:16.084Z,98.23
2022-09-27T08:07:43.392Z,98.02
2022-09-27T08:10:11.577Z,97.86
2022-09-27T08:12:38.965Z,97.65
2022-09-27T08:15:06.279Z,97.62
2022-09-27T08:17:33.572Z,97.53
2022-09-27T08:20:27.769Z,97.80
2022-09-27T08:23:19.015Z,98.49
2022-09-27T08:25:54.767Z,98.57
2022-09-27T08:28:33.869Z,97.67
2022-09-27T08:31:05.386Z,97.63
2022-09-27T08:33:35.809Z,97.50
2022-09-27T08:36:13.032Z,97.39
2022-09-27T08:38:41.134Z,96.29
2022-09-27T08:41:40.687Z,95.64
2022-09-27T08:44:35.156Z,95.06
2022-09-27T08:47:23.247Z,94.90
2022-09-27T08:49:56.893Z,94.81
2022-09-27T08:52:30.415Z,94.82
2022-09-27T08:55:03.568Z,94.19
2022-09-27T08:57:31.322Z,94.48
2022-09-27T09:00:07.247Z,94.43
2022-09-27T09:02:36.372Z,94.14
2022-09-27T09:05:13.313Z,93.83
2022-09-27T09:07:43.542Z,94.04
2022-09-27T09:11:07.304Z,94.12
2022-09-27T09:13:51.748Z,94.02
2022-09-27T09:16:32.738Z,93.43
2022-09-27T09:19:37.447Z,93.80
2022-09-27T09:23:00.382Z,93.16
2022-09-27T09:25:55.038Z,91.82
2022-09-27T09:28:39.852Z,92.37
2022-09-27T09:31:25.362Z,92.09
2022-09-27T09:33:56.963Z,91.63
2022-09-27T09:36:31.175Z,91.54
2022-09-27T09:39:39.080Z,91.43
2022-09-27T09:42:24.469Z,91.27
2022-09-27T09:44:55.609Z,90.81
2022-09-27T09:47:42.456Z,91.02
2022-09-27T09:50:56.250Z,91.37
2022-09-27T09:53:40.023Z,90.57
2022-09-27T09:56:15.672Z,89.35
2022-09-27T09:58:56.015Z,89.65
2022-09-27T10:01:40.540Z,88.76
2022-09-27T10:04:18.342Z,88.78
2022-09-27T10:06:45.523Z,88.31
2022-09-27T10:09:15.934Z,88.29
2022-09-27T10:11:49.791Z,88.09
2022-09-27T10:14:38.545Z,88.57
2022-09-27T10:17:14.639Z,87.16
2022-09-27T10:19:42.951Z,87.85
2022-09-27T10:22:18.802Z,88.47
2022-09-27T10:25:04.428Z,88.68
2022-09-27T10:27:47.333Z,89.14
2022-09-27T10:30:33.609Z,88.90
2022-09-27T10:33:16.281Z,88.43
2022-09-27T10:35:51.049Z,88.44
2022-09-27T10:38:35.784Z,88.85
2022-09-27T10:41:38.286Z,88.74
2022-09-27T10:44:15.683Z,88.72
2022-09-27T10:46:50.555Z,88.81
2022-09-27T10:50:04.042Z,87.96
2022-09-27T10:52:44.190Z,87.22
2022-09-27T10:55:26.135Z,86.77
2022-09-27T10:57:56.213Z,87.48
2022-09-27T11:00:30.022Z,87.61
2022-09-27T11:03:01.656Z,86.98
2022-09-27T11:05:35.579Z,86.03
2022-09-27T11:08:19.679Z,85.72
2022-09-27T11:11:04.157Z,85.31
2022-09-27T11:13:33.813Z,85.04
2022-09-27T11:16:04.904Z,84.71
2022-09-27T11:19:14.572Z,84.45
2022-09-27T11:22:08.473Z,84.99
2022-09-27T11:25:06.393Z,85.19
2022-09-27T11:28:02.606Z,85.31
2022-09-27T11:30:51.553Z,86.27
2022-09-27T11:34:12.162Z,86.15
2022-09-27T11:36:57.572Z,86.41
2022-09-27T11:40:00.272Z,85.67
2022-09-27T11:42:45.146Z,85.74
2022-09-27T11:45:41.155Z,85.47
2022-09-27T11:48:32.738Z,85.33
2022-09-27T11:51:14.870Z,85.26
2022-09-27T11:53:44.575Z,85.58
2022-09-27T11:56:44.142Z,85.70
2022-09-27T11:59:32.895Z,85.56
2022-09-27T12:02:13.677Z,85.58
2022-09-27T12:05:00.706Z,85.32
2022-09-27T12:07:53.134Z,84.79
2022-09-27T12:10:21.802Z,83.60
2022-09-27T12:12:53.943Z,83.38
2022-09-27T12:15:24.203Z,82.77
2022-09-27T12:17:56.560Z,81.46
2022-09-27T12:20:35.195Z,80.63
2022-09-27T12:23:20.344Z,80.66
2022-09-27T12:26:06.454Z,81.56
2022-09-27T12:28:42.885Z,81.22
2022-09-27T12:31:30.473Z,79.65
2022-09-27T12:34:06.695Z,79.01
2022-09-27T12:36:38.824Z,79.82
2022-09-27T12:39:22.433Z,79.56
2022-09-27T12:42:06.156Z,78.43
2022-09-27T12:44:46.037Z,78.45
2022-09-27T12:47:58.742Z,77.47
2022-09-27T12:50:35.223Z,77.62
2022-09-27T12:53:12.198Z,77.48
2022-09-27T12:56:10.858Z,77.94
2022-09-27T12:58:59.213Z,77.37
2022-09-27T13:01:53.927Z,77.22
2022-09-27T13:04:23.986Z,77.19
2022-09-27T13:07:17.731Z,77.11
2022-09-27T13:10:15.044Z,77.56
2022-09-27T13:12:50.201Z,77.23
2022-09-27T13:15:21.849Z,75.87
2022-09-27T13:17:50.985Z,75.25
2022-09-27T13:20:36.332Z,74.51
2022-09-27T13:23:19.770Z,74.87
2022-09-27T13:26:03.582Z,74.91
2022-09-27T13:28:47.517Z,74.91
2022-09-27T13:31:56.214Z,75.24
2022-09-27T13:34:39.563Z,75.31
2022-09-27T13:37:26.125Z,75.17
2022-09-27T13:40:15.268Z,74.84
2022-09-27T13:43:13.373Z,74.67
2022-09-27T13:46:08.612Z,74.70
2022-09-27T13:48:45.871Z,74.99
2022-09-27T13:51:39.930Z,75.50
2022-09-27T13:54:45.542Z,75.37
2022-09-27T13:57:34.671Z,75.04
2022-09-27T14:00:06.303Z,73.67
2022-09-27T14:03:07.805Z,73.52
2022-09-27T14:05:41.529Z,73.66
2022-09-27T14:08:25.035Z,73.93
2022-09-27T14:10:54.271Z,73.85
2022-09-27T14:13:24.439Z,73.94
2022-09-27T14:16:05.033Z,74.15
2022-09-27T14:18:37.641Z,73.44
2022-09-27T14:21:36.253Z,73.55
2022-09-27T14:24:28.635Z,73.23
2022-09-27T14:27:21.644Z,73.75
2022-09-27T14:29:58.278Z,74.17
2022-09-27T14:32:34.143Z,74.72
2022-09-27T14:35:37.760Z,74.82
2022-09-27T14:38:33.087Z,74.64
2022-09-27T14:41:03.612Z,74.96
2022-09-27T14:43:33.054Z,75.44
2022-09-27T14:46:02.778Z,75.75
2022-09-27T14:48:36.810Z,76.17
2022-09-27T14:51:19.408Z,76.70
2022-09-27T14:53:49.895Z,76.29
2022-09-27T14:56:22.669Z,76.67
2022-09-27T14:58:56.772Z,76.41
2022-09-27T15:01:24.466Z,76.12
2022-09-27T15:03:53.684Z,76.28
2022-09-27T15:06:21.469Z,76.37
2022-09-27T15:08:51.521Z,76.54
2022-09-27T15:11:19.546Z,76.73
2022-09-27T15:13:51.802Z,76.98
2022-09-27T15:16:22.783Z,77.41
2022-09-27T15:19:17.463Z,77.41
2022-09-27T15:21:45.784Z,77.56
2022-09-27T15:24:39.953Z,78.09
2022-09-27T15:27:22.781Z,78.72
2022-09-27T15:29:55.860Z,78.45
2022-09-27T15:32:25.290Z,78.34
2022-09-27T15:34:53.731Z,78.67
2022-09-27T15:37:47.205Z,78.84
2022-09-27T15:40:21.119Z,79.19
2022-09-27T15:42:59.620Z,79.15
2022-09-27T15:45:36.183Z,79.26
2022-09-27T15:48:21.854Z,79.17
2022-09-27T15:50:50.145Z,78.86
2022-09-27T15:53:35.322Z,78.92
2022-09-27T15:56:06.788Z,78.94
2022-09-27T15:58:35.098Z,79.62
2022-09-27T16:01:04.121Z,80.02
2022-09-27T16:03:32.193Z,79.84
2022-09-27T16:06:02.171Z,80.41
2022-09-27T16:08:29.435Z,80.34
2022-09-27T16:11:00.782Z,80.14
2022-09-27T16:13:32.718Z,80.43
2022-09-27T16:16:02.377Z,80.87
2022-09-27T16:18:30.757Z,80.90
2022-09-27T16:20:59.191Z,81.14
2022-09-27T16:23:26.447Z,81.53
2022-09-27T16:25:53.707Z,81.70
2022-09-27T16:28:20.699Z,81.95
2022-09-27T16:30:48.334Z,81.89
2022-09-27T16:33:15.547Z,82.69
2022-09-27T16:35:43.029Z,82.66
2022-09-27T16:38:10.289Z,82.88
2022-09-27T16:40:37.978Z,83.23
2022-09-27T16:43:07.655Z,83.02
2022-09-27T16:45:36.588Z,83.37
2022-09-27T16:48:03.987Z,83.35
2022-09-27T16:50:49.437Z,83.49
2022-09-27T16:53:16.772Z,83.58
2022-09-27T16:55:43.900Z,83.38
2022-09-27T16:58:10.820Z,83.68
2022-09-27T17:00:38.652Z,83.74
2022-09-27T17:03:06.863Z,83.94
2022-09-27T17:05:33.701Z,84.21
2022-09-27T17:08:01.483Z,84.18
2022-09-27T17:10:28.811Z,84.49
2022-09-27T17:12:57.867Z,84.66
2022-09-27T17:15:25.373Z,84.76
2022-09-27T17:17:52.468Z,84.97
2022-09-27T17:20:19.589Z,85.17
2022-09-27T17:22:47.942Z,85.27
2022-09-27T17:25:15.314Z,85.63
2022-09-27T17:27:42.488Z,85.86
2022-09-27T17:30:10.390Z,85.85
2022-09-27T17:32:38.713Z,86.22
2022-09-27T17:35:06.784Z,86.39
2022-09-27T17:37:34.179Z,86.54
2022-09-27T17:40:01.969Z,86.96
2022-09-27T17:42:28.991Z,87.07
2022-09-27T17:44:55.980Z,87.11
2022-09-27T17:47:41.871Z,87.61
2022-09-27T17:50:25.913Z,87.85
2022-09-27T17:52:56.699Z,88.20
2022-09-27T17:55:24.981Z,88.38
2022-09-27T17:57:52.412Z,88.50
2022-09-27T18:00:20.617Z,88.53
2022-09-27T18:02:48.239Z,88.60
2022-09-27T18:05:15.827Z,88.67
2022-09-27T18:07:43.224Z,88.57
2022-09-27T18:10:10.584Z,88.50
2022-09-27T18:12:38.628Z,88.55
2022-09-27T18:15:06.619Z,88.58
2022-09-27T18:17:33.801Z,88.71
2022-09-27T18:20:02.478Z,88.76
2022-09-27T18:22:31.273Z,88.88
2022-09-27T18:24:58.799Z,88.90
2022-09-27T18:27:26.207Z,89.05
2022-09-27T18:29:54.314Z,89.35
2022-09-27T18:32:21.446Z,89.55
2022-09-27T18:34:48.592Z,89.53
2022-09-27T18:37:16.003Z,89.82
2022-09-27T18:39:43.077Z,89.78
2022-09-27T18:42:10.308Z,89.78
2022-09-27T18:44:37.651Z,89.65
2022-09-27T18:47:04.675Z,89.49
2022-09-27T18:49:34.201Z,89.46
2022-09-27T18:52:02.900Z,89.50
2022-09-27T18:54:30.300Z,89.41
2022-09-27T18:56:59.130Z,89.63
2022-09-27T18:59:26.512Z,89.57
2022-09-27T19:01:53.588Z,89.43
2022-09-27T19:04:25.886Z,89.46
2022-09-27T19:06:55.863Z,89.27
2022-09-27T19:09:23.543Z,89.29
2022-09-27T19:11:51.220Z,89.11
2022-09-27T19:14:21.356Z,88.81
2022-09-27T19:16:49.602Z,88.70
2022-09-27T19:19:17.823Z,88.73
2022-09-27T19:21:45.388Z,88.72
2022-09-27T19:24:14.170Z,88.66
2022-09-27T19:26:41.689Z,88.58
2022-09-27T19:29:08.860Z,88.13
2022-09-27T19:31:36.112Z,88.16
2022-09-27T19:34:03.304Z,88.17
2022-09-27T19:36:30.741Z,88.24
2022-09-27T19:39:00.417Z,88.20
2022-09-27T19:41:27.664Z,88.33
2022-09-27T19:43:56.326Z,88.31
2022-09-27T19:46:24.826Z,88.10
2022-09-27T19:48:52.418Z,88.25
2022-09-27T19:51:22.627Z,88.14
2022-09-27T19:53:50.594Z,88.21
2022-09-27T19:56:18.498Z,88.34
2022-09-27T19:58:46.050Z,88.11
2022-09-27T20:01:16.009Z,88.12
2022-09-27T20:03:44.380Z,88.19
2022-09-27T20:06:14.663Z,88.06
2022-09-27T20:08:43.072Z,87.96
2022-09-27T20:11:13.345Z,88.03
2022-09-27T20:13:41.192Z,88.02
2022-09-27T20:16:19.865Z,87.91
2022-09-27T20:18:50.715Z,87.92
2022-09-27T20:21:18.734Z,87.98
2022-09-27T20:23:49.597Z,87.90
2022-09-27T20:26:18.932Z,88.18
2022-09-27T20:28:48.214Z,88.14
2022-09-27T20:31:17.582Z,88.08
2022-09-27T20:33:46.827Z,88.04
2022-09-27T20:36:23.120Z,88.39
2022-09-27T20:38:52.652Z,88.84
2022-09-27T20:41:22.799Z,90.29
2022-09-27T20:43:55.566Z,91.05
2022-09-27T20:46:24.807Z,92.39
2022-09-27T20:48:57.062Z,92.40
2022-09-27T20:51:24.802Z,93.56
2022-09-27T20:53:52.002Z,94.68
2022-09-27T20:56:22.155Z,95.38
2022-09-27T20:58:51.490Z,96.31
2022-09-27T21:01:19.319Z,97.20
2022-09-27T21:03:46.499Z,97.67
2022-09-27T21:06:14.001Z,98.00
2022-09-27T21:08:41.157Z,98.19
2022-09-27T21:11:13.831Z,98.74
2022-09-27T21:13:42.511Z,99.06
2022-09-27T21:16:14.254Z,99.28
2022-09-27T21:18:41.690Z,99.58
2022-09-27T21:21:11.223Z,99.73
2022-09-27T21:23:44.098Z,100.00
2022-09-27T21:26:16.644Z,100.00
2022-09-27T21:28:48.576Z,100.00
2022-09-27T21:31:23.040Z,100.00
2022-09-27T21:33:54.080Z,100.00
2022-09-27T21:36:26.434Z,100.00
2022-09-27T21:38:53.872Z,100.00
2022-09-27T21:41:20.856Z,100.00
2022-09-27T21:43:49.003Z,100.00
2022-09-27T21:46:22.634Z,100.00
2022-09-27T21:48:52.464Z,100.00
2022-09-27T21:51:27.024Z,100.00
2022-09-27T21:54:00.651Z,100.00
2022-09-27T21:56:30.394Z,100.00
2022-09-27T21:58:58.055Z,100.00
2022-09-27T22:01:29.558Z,100.00
2022-09-27T22:03:57.149Z,100.00
2022-09-27T22:06:36.595Z,100.00
2022-09-27T22:09:06.940Z,100.00
2022-09-27T22:11:37.790Z,100.00
2022-09-27T22:14:06.914Z,100.00
2022-09-27T22:16:33.880Z,100.00
2022-09-27T22:19:01.102Z,100.00
2022-09-27T22:21:33.114Z,100.00
2022-09-27T22:24:18.794Z,100.00
2022-09-27T22:26:50.803Z,100.00
2022-09-27T22:29:17.964Z,100.00
2022-09-27T22:31:44.965Z,100.00
2022-09-27T22:34:18.317Z,100.00
2022-09-27T22:36:45.371Z,100.00
2022-09-27T22:39:12.530Z,100.00
2022-09-27T22:41:39.646Z,100.00
2022-09-27T22:44:07.794Z,100.00
2022-09-27T22:46:35.144Z,100.00
2022-09-27T22:49:02.321Z,100.00
2022-09-27T22:51:29.389Z,100.00
2022-09-27T22:53:56.223Z,100.00
2022-09-27T22:56:23.637Z,100.00
2022-09-27T22:58:50.640Z,100.00
2022-09-27T23:01:20.249Z,100.00
2022-09-27T23:03:49.564Z,100.00
2022-09-27T23:06:18.878Z,100.00
2022-09-27T23:08:45.718Z,100.00
2022-09-27T23:11:20.620Z,100.00
2022-09-27T23:13:48.912Z,100.00
2022-09-27T23:16:19.351Z,100.00
2022-09-27T23:18:47.871Z,100.00
2022-09-27T23:21:16.125Z,100.00
2022-09-27T23:23:45.214Z,100.00
2022-09-27T23:26:14.987Z,100.00
2022-09-27T23:28:42.007Z,100.00
2022-09-27T23:31:12.011Z,100.00
2022-09-27T23:33:41.303Z,100.00
2022-09-27T23:36:12.190Z,100.00
2022-09-27T23:38:41.059Z,100.00
2022-09-27T23:41:08.462Z,100.00
2022-09-27T23:43:36.393Z,100.00
2022-09-27T23:46:05.985Z,100.00
2022-09-27T23:48:36.329Z,100.00
2022-09-27T23:51:05.762Z,100.00
2022-09-27T23:53:33.143Z,100.00
2022-09-27T23:56:02.093Z,100.00
2022-09-27T23:58:36.073Z,100.00
